Terminal Aerodrome Forecast
Issued by NWS

Home | Current Version | Previous Version | Text Only | Print | Product List | Glossary On
Versions: 1 2 3 4 5 6 7 8 9 10 11 12 13 14
329
FTUS43 KTOP 192325
TAFMHK
TAF
KMHK 192325Z 2000/2024 20018G27KT P6SM SCT250
     FM200200 20013KT P6SM SCT250 WS020/22047KT
     FM200700 24005KT P6SM SCT250
     FM201200 02013KT P6SM FEW250=

USA.gov is the U.S. government's official web portal to all federal, state and local government web resources and services.